createdAt,value
2023-09-06T00:00:38.725Z,20.58
2023-09-06T00:01:11.353Z,20.58
2023-09-06T00:01:44.010Z,20.58
2023-09-06T00:02:16.584Z,20.57
2023-09-06T00:02:49.146Z,20.57
2023-09-06T00:03:21.953Z,20.56
2023-09-06T00:03:57.292Z,20.56
2023-09-06T00:04:30.047Z,20.55
2023-09-06T00:05:02.780Z,20.55
2023-09-06T00:05:35.370Z,20.54
2023-09-06T00:06:08.007Z,20.54
2023-09-06T00:06:40.596Z,20.53
2023-09-06T00:07:13.124Z,20.53
2023-09-06T00:07:48.574Z,20.52
2023-09-06T00:08:21.059Z,20.52
2023-09-06T00:08:53.554Z,20.52
2023-09-06T00:09:26.119Z,20.51
2023-09-06T00:09:58.684Z,20.51
2023-09-06T00:10:31.213Z,20.51
2023-09-06T00:11:05.431Z,20.50
2023-09-06T00:11:37.981Z,20.50
2023-09-06T00:12:10.601Z,20.50
2023-09-06T00:12:43.959Z,20.50
2023-09-06T00:13:18.138Z,20.50
2023-09-06T00:13:50.651Z,20.50
2023-09-06T00:14:23.192Z,20.49
2023-09-06T00:14:56.299Z,20.48
2023-09-06T00:15:28.866Z,20.48
2023-09-06T00:16:02.620Z,20.47
2023-09-06T00:16:35.177Z,20.46
2023-09-06T00:17:07.696Z,20.46
2023-09-06T00:17:42.408Z,20.46
2023-09-06T00:18:14.980Z,20.46
2023-09-06T00:18:47.632Z,20.45
2023-09-06T00:19:20.162Z,20.45
2023-09-06T00:19:53.846Z,20.45
2023-09-06T00:20:26.375Z,20.44
2023-09-06T00:20:59.133Z,20.44
2023-09-06T00:21:31.648Z,20.43
2023-09-06T00:22:04.283Z,20.43
2023-09-06T00:22:36.812Z,20.42
2023-09-06T00:23:10.716Z,20.42
2023-09-06T00:23:43.453Z,20.41
2023-09-06T00:24:20.545Z,20.41
2023-09-06T00:24:53.237Z,20.40
2023-09-06T00:25:27.790Z,20.39
2023-09-06T00:26:00.286Z,20.38
2023-09-06T00:26:32.776Z,20.38
2023-09-06T00:27:06.167Z,20.37
2023-09-06T00:27:38.722Z,20.37
2023-09-06T00:28:11.572Z,20.36
2023-09-06T00:28:44.060Z,20.36
2023-09-06T00:29:16.546Z,20.36
2023-09-06T00:29:49.068Z,20.35
2023-09-06T00:30:21.665Z,20.34
2023-09-06T00:30:58.730Z,20.33
2023-09-06T00:31:32.887Z,20.33
2023-09-06T00:32:05.509Z,20.32
2023-09-06T00:32:38.057Z,20.32
2023-09-06T00:33:10.647Z,20.30
2023-09-06T00:33:43.729Z,20.30
2023-09-06T00:34:16.608Z,20.29
2023-09-06T00:34:49.876Z,20.29
2023-09-06T00:35:25.436Z,20.28
2023-09-06T00:35:59.341Z,20.28
2023-09-06T00:36:34.062Z,20.27
2023-09-06T00:37:08.529Z,20.27
2023-09-06T00:37:46.762Z,20.26
2023-09-06T00:38:19.442Z,20.26
2023-09-06T00:38:51.991Z,20.25
2023-09-06T00:39:25.114Z,20.25
2023-09-06T00:39:57.665Z,20.24
2023-09-06T00:40:31.332Z,20.23
2023-09-06T00:41:04.064Z,20.22
2023-09-06T00:41:41.393Z,20.21
2023-09-06T00:42:13.961Z,20.21
2023-09-06T00:42:54.760Z,20.20
2023-09-06T00:43:27.298Z,20.19
2023-09-06T00:43:59.808Z,20.19
2023-09-06T00:44:32.509Z,20.19
2023-09-06T00:45:05.305Z,20.18
2023-09-06T00:45:45.587Z,20.17
2023-09-06T00:46:20.844Z,20.17
2023-09-06T00:46:53.466Z,20.16
2023-09-06T00:47:26.748Z,20.16
2023-09-06T00:48:00.260Z,20.15
2023-09-06T00:48:33.400Z,20.15
2023-09-06T00:49:07.604Z,20.14
2023-09-06T00:49:40.219Z,20.13
2023-09-06T00:50:15.561Z,20.13
2023-09-06T00:50:54.414Z,20.12
2023-09-06T00:51:27.898Z,20.11
2023-09-06T00:52:00.518Z,20.10
2023-09-06T00:52:33.636Z,20.10
2023-09-06T00:53:08.398Z,20.09
2023-09-06T00:53:40.930Z,20.08
2023-09-06T00:54:13.498Z,20.08
2023-09-06T00:54:46.128Z,20.07
2023-09-06T00:55:19.963Z,20.06
2023-09-06T00:55:53.288Z,20.05
2023-09-06T00:56:25.837Z,20.04
2023-09-06T00:56:58.398Z,20.04
2023-09-06T00:57:31.480Z,20.03
2023-09-06T00:58:05.617Z,20.02
2023-09-06T00:58:39.404Z,20.02
2023-09-06T00:59:14.013Z,20.01
2023-09-06T00:59:50.071Z,20.00
2023-09-06T01:00:26.056Z,20.00
2023-09-06T01:00:59.350Z,19.98
2023-09-06T01:01:35.367Z,19.97
2023-09-06T01:02:08.165Z,19.96
2023-09-06T01:02:40.840Z,19.95
2023-09-06T01:03:14.419Z,19.95
2023-09-06T01:03:47.103Z,19.94
2023-09-06T01:04:19.727Z,19.93
2023-09-06T01:04:52.293Z,19.92
2023-09-06T01:05:27.703Z,19.91
2023-09-06T01:06:05.596Z,19.91
2023-09-06T01:06:41.650Z,19.89
2023-09-06T01:07:15.007Z,19.88
2023-09-06T01:07:54.501Z,19.87
2023-09-06T01:08:38.774Z,19.86
2023-09-06T01:09:11.595Z,19.85
2023-09-06T01:09:45.155Z,19.84
2023-09-06T01:10:17.736Z,19.83
2023-09-06T01:10:51.769Z,19.82
2023-09-06T01:11:26.522Z,19.82
2023-09-06T01:12:00.273Z,19.82
2023-09-06T01:12:35.672Z,19.80
2023-09-06T01:13:08.345Z,19.71
2023-09-06T01:13:40.871Z,19.68
2023-09-06T01:14:13.567Z,19.67
2023-09-06T01:14:46.088Z,19.67
2023-09-06T01:15:18.667Z,19.67
2023-09-06T01:15:52.960Z,19.67
2023-09-06T01:16:33.877Z,19.66
2023-09-06T01:17:08.710Z,19.66
2023-09-06T01:17:44.448Z,19.66
2023-09-06T01:18:18.023Z,19.65
2023-09-06T01:18:50.740Z,19.65
2023-09-06T01:19:30.052Z,19.65
2023-09-06T01:20:30.250Z,19.65
2023-09-06T01:21:09.362Z,19.65
2023-09-06T01:22:00.602Z,19.64
2023-09-06T01:22:39.614Z,19.63
2023-09-06T01:23:38.386Z,19.63
2023-09-06T01:24:12.077Z,19.63
2023-09-06T01:24:45.518Z,19.62
2023-09-06T01:25:18.463Z,19.62
2023-09-06T01:25:52.054Z,19.61
2023-09-06T01:26:25.308Z,19.61
2023-09-06T01:26:58.722Z,19.60
2023-09-06T01:27:31.240Z,19.60
2023-09-06T01:28:04.481Z,19.59
2023-09-06T01:28:37.070Z,19.59
2023-09-06T01:29:09.974Z,19.58
2023-09-06T01:29:42.717Z,19.58
2023-09-06T01:30:15.653Z,19.58
2023-09-06T01:30:48.601Z,19.58
2023-09-06T01:31:21.277Z,19.58
2023-09-06T01:31:53.984Z,19.58
2023-09-06T01:32:28.533Z,19.58
2023-09-06T01:33:01.107Z,19.58
2023-09-06T01:33:33.688Z,19.57
2023-09-06T01:34:06.225Z,19.57
2023-09-06T01:34:38.834Z,19.56
2023-09-06T01:35:11.877Z,19.56
2023-09-06T01:35:44.397Z,19.56
2023-09-06T01:36:16.941Z,19.57
2023-09-06T01:36:49.526Z,19.57
2023-09-06T01:37:25.035Z,19.57
2023-09-06T01:37:58.117Z,19.57
2023-09-06T01:38:34.100Z,19.57
2023-09-06T01:39:07.707Z,19.57
2023-09-06T01:39:40.221Z,19.57
2023-09-06T01:40:17.037Z,19.56
2023-09-06T01:40:49.619Z,19.56
2023-09-06T01:41:22.164Z,19.55
2023-09-06T01:41:54.651Z,19.55
2023-09-06T01:42:28.093Z,19.55
2023-09-06T01:43:00.642Z,19.55
2023-09-06T01:43:33.224Z,19.55
2023-09-06T01:44:06.040Z,19.54
2023-09-06T01:44:38.659Z,19.54
2023-09-06T01:45:11.507Z,19.53
2023-09-06T01:45:46.064Z,19.53
2023-09-06T01:46:18.732Z,19.53
2023-09-06T01:46:51.409Z,19.53
2023-09-06T01:47:26.455Z,19.52
2023-09-06T01:47:59.022Z,19.52
2023-09-06T01:48:33.705Z,19.52
2023-09-06T01:49:38.705Z,19.52
2023-09-06T01:50:11.230Z,19.52
2023-09-06T01:50:43.885Z,19.52
2023-09-06T01:51:17.444Z,19.52
2023-09-06T01:51:49.996Z,19.51
2023-09-06T01:52:22.523Z,19.51
2023-09-06T01:52:56.314Z,19.51
2023-09-06T01:53:30.353Z,19.51
2023-09-06T01:54:05.518Z,19.51
2023-09-06T01:54:38.011Z,19.51
2023-09-06T01:55:10.613Z,19.51
2023-09-06T01:55:44.275Z,19.51
2023-09-06T01:56:16.767Z,19.51
2023-09-06T01:56:49.250Z,19.52
2023-09-06T01:57:21.752Z,19.52
2023-09-06T01:57:54.345Z,19.52
2023-09-06T01:58:27.235Z,19.52
2023-09-06T01:59:00.018Z,19.52
2023-09-06T01:59:32.943Z,19.53
2023-09-06T02:00:20.466Z,19.53
2023-09-06T02:00:54.477Z,19.53
2023-09-06T02:01:27.200Z,19.53
2023-09-06T02:01:59.820Z,19.53
2023-09-06T02:02:32.430Z,19.53
2023-09-06T02:03:07.768Z,19.53
2023-09-06T02:03:40.504Z,19.54
2023-09-06T02:04:13.197Z,19.54
2023-09-06T02:04:45.764Z,19.53
2023-09-06T02:05:18.250Z,19.53
2023-09-06T02:05:51.351Z,19.53
2023-09-06T02:06:23.891Z,19.54
2023-09-06T02:06:56.439Z,19.54
2023-09-06T02:07:29.118Z,19.53
2023-09-06T02:08:02.021Z,19.53
2023-09-06T02:08:36.590Z,19.53
2023-09-06T02:09:09.410Z,19.53
2023-09-06T02:09:42.056Z,19.53
2023-09-06T02:10:14.835Z,19.52
2023-09-06T02:10:47.353Z,19.52
2023-09-06T02:11:19.834Z,19.52
2023-09-06T02:11:53.347Z,19.52
2023-09-06T02:12:27.220Z,19.52
2023-09-06T02:13:00.225Z,19.51
2023-09-06T02:13:32.780Z,19.51
2023-09-06T02:14:05.311Z,19.51
2023-09-06T02:14:37.823Z,19.50
2023-09-06T02:15:15.180Z,19.50
2023-09-06T02:15:47.836Z,19.50
2023-09-06T02:16:21.055Z,19.50
2023-09-06T02:16:53.598Z,19.50
2023-09-06T02:17:26.429Z,19.50
2023-09-06T02:17:59.070Z,19.50
2023-09-06T02:18:31.936Z,19.50
2023-09-06T02:19:04.553Z,19.50
2023-09-06T02:19:37.056Z,19.50
2023-09-06T02:20:22.712Z,19.50
2023-09-06T02:20:59.720Z,19.50
2023-09-06T02:21:32.340Z,19.50
2023-09-06T02:22:05.455Z,19.50
2023-09-06T02:22:38.253Z,19.51
2023-09-06T02:23:10.777Z,19.51
2023-09-06T02:23:43.270Z,19.51
2023-09-06T02:24:15.795Z,19.51
2023-09-06T02:24:48.311Z,19.51
2023-09-06T02:25:24.587Z,19.51
2023-09-06T02:25:57.602Z,19.51
2023-09-06T02:26:31.610Z,19.52
2023-09-06T02:27:04.303Z,19.52
2023-09-06T02:27:38.050Z,19.52
2023-09-06T02:28:10.596Z,19.52
2023-09-06T02:28:43.137Z,19.52
2023-09-06T02:29:16.997Z,19.52
2023-09-06T02:29:52.750Z,19.52
2023-09-06T02:30:25.330Z,19.52
2023-09-06T02:30:57.832Z,19.52
2023-09-06T02:31:30.471Z,19.52
2023-09-06T02:32:03.120Z,19.51
2023-09-06T02:32:36.104Z,19.52
2023-09-06T02:33:10.756Z,19.52
2023-09-06T02:33:45.304Z,19.52
2023-09-06T02:34:17.949Z,19.51
2023-09-06T02:34:50.503Z,19.51
2023-09-06T02:35:23.441Z,19.51
2023-09-06T02:35:56.001Z,19.50
2023-09-06T02:36:28.496Z,19.50
2023-09-06T02:37:01.120Z,19.50
2023-09-06T02:37:34.161Z,19.50
2023-09-06T02:38:06.666Z,19.50
2023-09-06T02:38:39.160Z,19.50
2023-09-06T02:39:11.690Z,19.50
2023-09-06T02:39:44.229Z,19.50
2023-09-06T02:40:19.434Z,19.50
2023-09-06T02:40:53.469Z,19.49
2023-09-06T02:41:25.998Z,19.50
2023-09-06T02:42:00.418Z,19.50
2023-09-06T02:42:32.908Z,19.50
2023-09-06T02:43:06.033Z,19.49
2023-09-06T02:43:38.707Z,19.49
2023-09-06T02:44:11.222Z,19.49
2023-09-06T02:44:44.015Z,19.48
2023-09-06T02:45:16.586Z,19.48
2023-09-06T02:45:51.501Z,19.49
2023-09-06T02:46:32.961Z,19.48
2023-09-06T02:47:10.063Z,19.48
2023-09-06T02:47:51.761Z,19.48
2023-09-06T02:48:24.571Z,19.48
2023-09-06T02:48:59.732Z,19.48
2023-09-06T02:49:33.314Z,19.48
2023-09-06T02:50:07.689Z,19.47
2023-09-06T02:50:41.683Z,19.47
2023-09-06T02:51:17.148Z,19.47
2023-09-06T02:51:49.692Z,19.46
2023-09-06T02:52:29.582Z,19.45
2023-09-06T02:53:04.369Z,19.45
2023-09-06T02:53:37.315Z,19.45
2023-09-06T02:54:10.878Z,19.45
2023-09-06T02:54:43.715Z,19.45
2023-09-06T02:55:16.298Z,19.45
2023-09-06T02:55:55.186Z,19.45
2023-09-06T02:56:27.781Z,19.45
2023-09-06T02:57:00.316Z,19.45
2023-09-06T02:57:33.327Z,19.45
2023-09-06T02:58:06.126Z,19.45
2023-09-06T02:58:38.874Z,19.45
2023-09-06T02:59:16.784Z,19.45
2023-09-06T02:59:49.338Z,19.45
2023-09-06T03:00:24.866Z,19.45
2023-09-06T03:00:59.419Z,19.45
2023-09-06T03:01:32.778Z,19.45
2023-09-06T03:02:06.807Z,19.45
2023-09-06T03:02:39.441Z,19.45
2023-09-06T03:03:17.298Z,19.45
2023-09-06T03:03:54.740Z,19.45
2023-09-06T03:04:27.552Z,19.45
2023-09-06T03:05:05.386Z,19.44
2023-09-06T03:05:44.992Z,19.44
2023-09-06T03:06:19.324Z,19.44
2023-09-06T03:06:51.946Z,19.43
2023-09-06T03:07:24.457Z,19.43
2023-09-06T03:07:56.947Z,19.43
2023-09-06T03:08:30.306Z,19.43
2023-09-06T03:09:07.857Z,19.43
2023-09-06T03:09:40.649Z,19.42
2023-09-06T03:10:13.229Z,19.42
2023-09-06T03:10:45.944Z,19.42
2023-09-06T03:11:18.555Z,19.42
2023-09-06T03:11:52.848Z,19.42
2023-09-06T03:12:25.421Z,19.42
2023-09-06T03:12:59.056Z,19.41
2023-09-06T03:13:31.631Z,19.41
2023-09-06T03:14:05.208Z,19.41
2023-09-06T03:14:37.764Z,19.40
2023-09-06T03:15:12.748Z,19.40
2023-09-06T03:15:45.507Z,19.40
2023-09-06T03:16:18.350Z,19.40
2023-09-06T03:16:54.622Z,19.39
2023-09-06T03:17:27.265Z,19.39
2023-09-06T03:18:00.149Z,19.38
2023-09-06T03:18:32.901Z,19.38
2023-09-06T03:19:11.238Z,19.38
2023-09-06T03:19:44.339Z,19.37
2023-09-06T03:20:35.184Z,19.37
2023-09-06T03:21:08.131Z,19.37
2023-09-06T03:21:40.804Z,19.36
2023-09-06T03:22:13.839Z,19.36
2023-09-06T03:22:52.964Z,19.35
2023-09-06T03:23:26.561Z,19.35
2023-09-06T03:24:00.794Z,19.34
2023-09-06T03:24:34.651Z,19.34
2023-09-06T03:25:07.380Z,19.34
2023-09-06T03:25:41.484Z,19.33
2023-09-06T03:26:14.505Z,19.33
2023-09-06T03:26:47.083Z,19.32
2023-09-06T03:27:21.623Z,19.32
2023-09-06T03:28:01.392Z,19.31
2023-09-06T03:28:34.906Z,19.30
2023-09-06T03:29:11.594Z,19.28
2023-09-06T03:29:51.833Z,19.26
2023-09-06T03:30:25.290Z,19.25
2023-09-06T03:31:01.685Z,19.24
2023-09-06T03:31:35.677Z,19.23
2023-09-06T03:32:09.794Z,19.21
2023-09-06T03:32:43.772Z,19.20
2023-09-06T03:33:16.753Z,19.18
2023-09-06T03:33:49.251Z,19.17
2023-09-06T03:34:23.300Z,19.16
2023-09-06T03:34:56.163Z,19.15
2023-09-06T03:35:28.729Z,19.14
2023-09-06T03:36:01.281Z,19.13
2023-09-06T03:36:36.416Z,19.12
2023-09-06T03:37:12.420Z,19.11
2023-09-06T03:37:45.015Z,19.10
2023-09-06T03:38:19.095Z,19.09
2023-09-06T03:38:51.817Z,19.09
2023-09-06T03:39:30.208Z,19.08
2023-09-06T03:40:02.943Z,19.07
2023-09-06T03:40:39.656Z,19.06
2023-09-06T03:41:12.295Z,19.05
2023-09-06T03:41:47.335Z,19.04
2023-09-06T03:42:20.022Z,19.03
2023-09-06T03:42:56.164Z,19.03
2023-09-06T03:43:50.127Z,19.03
2023-09-06T03:44:22.740Z,19.02
2023-09-06T03:44:55.283Z,19.02
2023-09-06T03:45:28.848Z,19.01
2023-09-06T03:46:23.521Z,19.00
2023-09-06T03:46:58.823Z,19.00
2023-09-06T03:47:31.631Z,19.00
2023-09-06T03:48:06.360Z,18.99
2023-09-06T03:48:39.218Z,18.99
2023-09-06T03:49:14.471Z,18.99
2023-09-06T03:49:47.207Z,18.99
2023-09-06T03:50:22.580Z,18.98
2023-09-06T03:50:57.307Z,18.97
2023-09-06T03:51:29.895Z,18.96
2023-09-06T03:52:06.008Z,18.95
2023-09-06T03:52:40.322Z,18.93
2023-09-06T03:53:14.758Z,18.92
2023-09-06T03:53:48.925Z,18.90
2023-09-06T03:54:21.472Z,18.89
2023-09-06T03:54:54.580Z,18.87
2023-09-06T03:55:27.083Z,18.85
2023-09-06T03:56:01.696Z,18.83
2023-09-06T03:56:39.530Z,18.82
2023-09-06T03:57:14.408Z,18.80
2023-09-06T03:57:48.226Z,18.77
2023-09-06T03:58:20.764Z,18.75
2023-09-06T03:58:55.070Z,18.73
2023-09-06T03:59:27.681Z,18.70
2023-09-06T04:00:00.267Z,18.67
2023-09-06T04:00:32.883Z,18.65
2023-09-06T04:01:05.904Z,18.63
2023-09-06T04:01:38.997Z,18.61
2023-09-06T04:02:15.054Z,18.59
2023-09-06T04:02:49.204Z,18.57
2023-09-06T04:03:24.074Z,18.55
2023-09-06T04:03:57.011Z,18.53
2023-09-06T04:04:30.715Z,18.51
2023-09-06T04:05:03.291Z,18.48
2023-09-06T04:05:35.929Z,18.47
2023-09-06T04:06:08.416Z,18.45
2023-09-06T04:06:44.315Z,18.43
2023-09-06T04:07:16.906Z,18.42
2023-09-06T04:07:49.940Z,18.41
2023-09-06T04:08:26.891Z,18.39
2023-09-06T04:08:59.788Z,18.38
2023-09-06T04:09:38.497Z,18.36
2023-09-06T04:10:17.818Z,18.34
2023-09-06T04:10:50.875Z,18.32
2023-09-06T04:11:24.216Z,18.31
2023-09-06T04:12:00.374Z,18.30
2023-09-06T04:12:32.912Z,18.28
2023-09-06T04:13:09.472Z,18.27
2023-09-06T04:13:43.371Z,18.26
2023-09-06T04:14:15.925Z,18.25
2023-09-06T04:14:48.501Z,18.24
2023-09-06T04:15:25.023Z,18.23
2023-09-06T04:15:57.519Z,18.22
2023-09-06T04:16:32.725Z,18.21
2023-09-06T04:17:08.630Z,18.20
2023-09-06T04:17:42.138Z,18.20
2023-09-06T04:18:14.920Z,18.19
2023-09-06T04:18:47.611Z,18.19
2023-09-06T04:19:20.384Z,18.19
2023-09-06T04:19:52.962Z,18.18
2023-09-06T04:20:33.055Z,18.18
2023-09-06T04:21:09.947Z,18.18
2023-09-06T04:21:42.511Z,18.18
2023-09-06T04:22:16.907Z,18.19
2023-09-06T04:22:49.443Z,18.19
2023-09-06T04:23:21.990Z,18.19
2023-09-06T04:23:54.567Z,18.19
2023-09-06T04:24:27.058Z,18.20
2023-09-06T04:24:59.589Z,18.21
2023-09-06T04:25:34.571Z,18.22
2023-09-06T04:26:07.473Z,18.24
2023-09-06T04:26:40.033Z,18.24
2023-09-06T04:27:13.523Z,18.25
2023-09-06T04:27:47.384Z,18.26
2023-09-06T04:28:22.600Z,18.27
2023-09-06T04:28:55.093Z,18.29
2023-09-06T04:29:27.652Z,18.30
2023-09-06T04:30:00.297Z,18.32
2023-09-06T04:30:33.349Z,18.34
2023-09-06T04:31:06.119Z,18.35
2023-09-06T04:31:42.534Z,18.36
2023-09-06T04:32:18.603Z,18.38
2023-09-06T04:32:52.850Z,18.39
2023-09-06T04:33:25.845Z,18.40
2023-09-06T04:33:59.307Z,18.41
2023-09-06T04:34:31.813Z,18.42
2023-09-06T04:35:05.372Z,18.43
2023-09-06T04:35:40.080Z,18.45
2023-09-06T04:36:12.558Z,18.46
2023-09-06T04:36:45.045Z,18.48
2023-09-06T04:37:19.714Z,18.49
2023-09-06T04:37:52.262Z,18.50
2023-09-06T04:38:25.053Z,18.51
2023-09-06T04:38:57.729Z,18.52
2023-09-06T04:39:31.707Z,18.52
2023-09-06T04:40:05.924Z,18.53
2023-09-06T04:40:39.296Z,18.54
2023-09-06T04:41:11.935Z,18.55
2023-09-06T04:41:44.482Z,18.56
2023-09-06T04:42:17.029Z,18.57
2023-09-06T04:42:49.554Z,18.57
2023-09-06T04:43:23.541Z,18.58
2023-09-06T04:43:56.604Z,18.59
2023-09-06T04:44:29.206Z,18.59
2023-09-06T04:45:02.003Z,18.60
2023-09-06T04:45:34.659Z,18.61
2023-09-06T04:46:07.263Z,18.62
2023-09-06T04:46:39.774Z,18.63
2023-09-06T04:47:15.397Z,18.63
2023-09-06T04:47:47.982Z,18.64
2023-09-06T04:48:20.761Z,18.65
2023-09-06T04:48:53.352Z,18.66
2023-09-06T04:49:26.028Z,18.67
2023-09-06T04:49:59.297Z,18.68
2023-09-06T04:50:32.074Z,18.70
2023-09-06T04:51:05.970Z,18.71
2023-09-06T04:51:39.180Z,18.73
2023-09-06T04:52:11.669Z,18.75
2023-09-06T04:52:46.341Z,18.77
2023-09-06T04:53:19.546Z,18.79
2023-09-06T04:53:52.216Z,18.81
2023-09-06T04:54:24.753Z,18.83
2023-09-06T04:54:58.241Z,18.85
2023-09-06T04:55:35.024Z,18.88
2023-09-06T04:56:08.090Z,18.91
2023-09-06T04:56:41.664Z,18.94
2023-09-06T04:57:14.279Z,18.96
2023-09-06T04:57:50.809Z,18.99
2023-09-06T04:58:23.331Z,19.02
2023-09-06T04:58:57.119Z,19.06
2023-09-06T04:59:29.646Z,19.09
2023-09-06T05:00:02.363Z,19.13
2023-09-06T05:00:40.103Z,19.15
2023-09-06T05:01:12.899Z,19.18
2023-09-06T05:01:45.485Z,19.20
2023-09-06T05:02:18.005Z,19.23
2023-09-06T05:02:53.005Z,19.25
2023-09-06T05:03:25.668Z,19.29
2023-09-06T05:03:58.530Z,19.32
2023-09-06T05:04:31.913Z,19.35
2023-09-06T05:05:05.057Z,19.38
2023-09-06T05:05:38.341Z,19.41
2023-09-06T05:06:10.888Z,19.44
2023-09-06T05:06:43.748Z,19.47
2023-09-06T05:07:16.285Z,19.49
2023-09-06T05:07:48.826Z,19.52
2023-09-06T05:08:22.500Z,19.55
2023-09-06T05:08:55.071Z,19.58
2023-09-06T05:09:27.610Z,19.60
2023-09-06T05:10:00.190Z,19.62
2023-09-06T05:10:33.188Z,19.64
2023-09-06T05:11:07.638Z,19.66
2023-09-06T05:11:40.132Z,19.68
2023-09-06T05:12:12.670Z,19.70
2023-09-06T05:12:46.576Z,19.72
2023-09-06T05:13:19.608Z,19.74
2023-09-06T05:13:53.442Z,19.76
2023-09-06T05:14:26.092Z,19.78
2023-09-06T05:14:58.713Z,19.81
2023-09-06T05:15:31.221Z,19.83
2023-09-06T05:16:03.912Z,19.86
2023-09-06T05:16:36.667Z,19.89
2023-09-06T05:17:09.199Z,19.91
2023-09-06T05:18:15.618Z,19.94
2023-09-06T05:18:50.426Z,19.97
2023-09-06T05:19:28.704Z,20.00
2023-09-06T05:20:34.278Z,20.02
2023-09-06T05:21:07.099Z,20.06
2023-09-06T05:21:39.649Z,20.08
2023-09-06T05:22:12.130Z,20.11
2023-09-06T05:22:44.941Z,20.11
2023-09-06T05:23:18.292Z,20.14
2023-09-06T05:23:50.824Z,20.16
2023-09-06T05:24:23.362Z,20.18
2023-09-06T05:24:55.943Z,20.20
2023-09-06T05:25:28.574Z,20.22
2023-09-06T05:26:01.116Z,20.24
2023-09-06T05:26:36.860Z,20.26
2023-09-06T05:27:09.378Z,20.28
2023-09-06T05:27:41.908Z,20.30
2023-09-06T05:28:16.354Z,20.32
2023-09-06T05:28:50.099Z,20.35
2023-09-06T05:29:22.735Z,20.37
2023-09-06T05:29:57.200Z,20.39
2023-09-06T05:30:30.043Z,20.41
2023-09-06T05:31:03.168Z,20.43
2023-09-06T05:31:35.732Z,20.45
2023-09-06T05:32:08.856Z,20.47
2023-09-06T05:32:41.722Z,20.50
2023-09-06T05:33:15.442Z,20.52
2023-09-06T05:33:49.096Z,20.53
2023-09-06T05:34:21.662Z,20.55
2023-09-06T05:34:54.186Z,20.57
2023-09-06T05:35:27.388Z,20.59
2023-09-06T05:35:59.885Z,20.61
2023-09-06T05:36:32.398Z,20.62
2023-09-06T05:37:05.152Z,20.64
2023-09-06T05:37:39.207Z,20.65
2023-09-06T05:38:11.831Z,20.65
2023-09-06T05:38:44.359Z,20.66
2023-09-06T05:39:16.861Z,20.67
2023-09-06T05:39:49.396Z,20.69
2023-09-06T05:40:24.416Z,20.70
2023-09-06T05:40:58.916Z,20.71
2023-09-06T05:41:32.922Z,20.73
2023-09-06T05:42:05.576Z,20.74
2023-09-06T05:42:38.346Z,20.75
2023-09-06T05:43:10.976Z,20.76
2023-09-06T05:43:43.558Z,20.78
2023-09-06T05:44:16.131Z,20.80
2023-09-06T05:44:48.660Z,20.82
2023-09-06T05:45:22.658Z,20.84
2023-09-06T05:45:55.207Z,20.86
2023-09-06T05:46:33.829Z,20.88
2023-09-06T05:47:06.745Z,20.90
2023-09-06T05:47:39.739Z,20.91
2023-09-06T05:48:12.685Z,20.93
2023-09-06T05:48:45.486Z,20.95
2023-09-06T05:49:18.205Z,20.97
2023-09-06T05:49:57.081Z,20.99
2023-09-06T05:50:29.716Z,21.00
2023-09-06T05:51:02.314Z,21.01
2023-09-06T05:51:35.068Z,21.02
2023-09-06T05:52:07.665Z,21.03
2023-09-06T05:52:40.152Z,21.05
2023-09-06T05:53:12.790Z,21.07
2023-09-06T05:53:45.374Z,21.08
2023-09-06T05:54:17.930Z,21.10
2023-09-06T05:54:51.421Z,21.12
2023-09-06T05:55:25.327Z,21.13
2023-09-06T05:55:58.785Z,21.14
2023-09-06T05:56:31.352Z,21.15
2023-09-06T05:57:05.763Z,21.15
2023-09-06T05:57:39.277Z,21.16
2023-09-06T05:58:11.781Z,21.17
2023-09-06T05:58:44.347Z,21.17
2023-09-06T05:59:17.775Z,21.19
2023-09-06T05:59:50.395Z,21.22
2023-09-06T06:00:23.838Z,21.24
2023-09-06T06:00:57.872Z,21.24
2023-09-06T06:01:30.443Z,21.25
2023-09-06T06:02:03.911Z,21.27
2023-09-06T06:02:36.557Z,21.27
2023-09-06T06:03:09.320Z,21.29
2023-09-06T06:03:41.899Z,21.31
2023-09-06T06:04:15.182Z,21.33
2023-09-06T06:04:47.832Z,21.34
2023-09-06T06:05:20.401Z,21.36
2023-09-06T06:05:52.968Z,21.37
2023-09-06T06:06:25.488Z,21.38
2023-09-06T06:06:58.039Z,21.41
2023-09-06T06:07:31.183Z,21.43
2023-09-06T06:08:04.020Z,21.46
2023-09-06T06:08:36.645Z,21.49
2023-09-06T06:09:14.759Z,21.50
2023-09-06T06:09:47.342Z,21.50
2023-09-06T06:10:19.873Z,21.51
2023-09-06T06:10:53.470Z,21.52
2023-09-06T06:11:28.394Z,21.54
2023-09-06T06:12:02.118Z,21.56
2023-09-06T06:12:35.294Z,21.57
2023-09-06T06:13:09.701Z,21.59
2023-09-06T06:13:53.203Z,21.60
2023-09-06T06:14:34.113Z,21.61
2023-09-06T06:15:09.710Z,21.62
2023-09-06T06:15:42.444Z,21.64
2023-09-06T06:16:16.137Z,21.66
2023-09-06T06:16:48.800Z,21.68
2023-09-06T06:17:21.421Z,21.70
2023-09-06T06:17:54.046Z,21.71
2023-09-06T06:18:27.792Z,21.72
2023-09-06T06:19:01.068Z,21.73
2023-09-06T06:19:34.378Z,21.74
2023-09-06T06:20:08.907Z,21.74
2023-09-06T06:20:44.405Z,21.75
2023-09-06T06:21:18.955Z,21.76
2023-09-06T06:21:52.027Z,21.77
2023-09-06T06:22:24.662Z,21.79
2023-09-06T06:22:57.225Z,21.81
2023-09-06T06:23:31.127Z,21.82
2023-09-06T06:24:04.139Z,21.84
2023-09-06T06:24:36.864Z,21.85
2023-09-06T06:25:11.800Z,21.87
2023-09-06T06:25:44.492Z,21.89
2023-09-06T06:26:20.536Z,21.90
2023-09-06T06:26:53.220Z,21.92
2023-09-06T06:27:26.286Z,21.94
2023-09-06T06:27:58.998Z,21.96
2023-09-06T06:28:32.016Z,21.99
2023-09-06T06:29:07.668Z,22.00
2023-09-06T06:29:40.424Z,22.02
2023-09-06T06:30:13.300Z,22.04
2023-09-06T06:30:47.920Z,22.06
2023-09-06T06:31:23.434Z,22.07
2023-09-06T06:31:57.917Z,22.09
2023-09-06T06:32:30.567Z,22.11
2023-09-06T06:33:06.613Z,22.13
2023-09-06T06:33:40.805Z,22.15
2023-09-06T06:34:15.302Z,22.18
2023-09-06T06:34:51.106Z,22.21
2023-09-06T06:35:24.122Z,22.23
2023-09-06T06:35:56.715Z,22.25
2023-09-06T06:36:32.412Z,22.29
2023-09-06T06:37:05.348Z,22.32
2023-09-06T06:37:37.878Z,22.35
2023-09-06T06:38:10.452Z,22.37
2023-09-06T06:38:47.424Z,22.39
2023-09-06T06:39:19.994Z,22.42
2023-09-06T06:39:52.487Z,22.44
2023-09-06T06:40:25.601Z,22.47
2023-09-06T06:40:58.553Z,22.50
2023-09-06T06:41:32.001Z,22.52
2023-09-06T06:42:04.654Z,22.54
2023-09-06T06:42:37.181Z,22.56
2023-09-06T06:43:09.683Z,22.57
2023-09-06T06:43:42.225Z,22.59
2023-09-06T06:44:14.909Z,22.61
2023-09-06T06:44:48.662Z,22.62
2023-09-06T06:45:21.243Z,22.64
2023-09-06T06:45:56.163Z,22.67
2023-09-06T06:46:29.973Z,22.68
2023-09-06T06:47:02.547Z,22.69
2023-09-06T06:47:35.532Z,22.69
2023-09-06T06:48:08.195Z,22.70
2023-09-06T06:48:40.781Z,22.73
2023-09-06T06:49:13.456Z,22.75
2023-09-06T06:49:45.986Z,22.75
2023-09-06T06:50:19.358Z,22.76
2023-09-06T06:50:53.116Z,22.76
2023-09-06T06:51:33.016Z,22.77
2023-09-06T06:52:05.816Z,22.79
2023-09-06T06:52:38.956Z,22.81
2023-09-06T06:53:11.550Z,22.82
2023-09-06T06:53:47.503Z,22.83
2023-09-06T06:54:20.818Z,22.84
2023-09-06T06:54:53.351Z,22.86
2023-09-06T06:55:25.874Z,22.86
2023-09-06T06:55:58.804Z,22.87
2023-09-06T06:56:31.336Z,22.88
2023-09-06T06:57:04.127Z,22.88
2023-09-06T06:57:37.487Z,22.89
2023-09-06T06:58:09.984Z,22.91
2023-09-06T06:58:42.551Z,22.93
2023-09-06T06:59:15.206Z,22.94
2023-09-06T06:59:47.854Z,22.96
2023-09-06T07:00:20.389Z,22.98
2023-09-06T07:00:52.951Z,22.99
2023-09-06T07:01:26.154Z,23.00
2023-09-06T07:01:58.836Z,23.02
2023-09-06T07:02:31.856Z,23.04
2023-09-06T07:03:10.351Z,23.06
2023-09-06T07:03:42.969Z,23.08
2023-09-06T07:04:15.602Z,23.10
2023-09-06T07:04:48.694Z,23.12
2023-09-06T07:05:21.330Z,23.14
2023-09-06T07:05:55.131Z,23.18
2023-09-06T07:06:30.348Z,23.21
2023-09-06T07:07:03.029Z,23.23
2023-09-06T07:07:35.570Z,23.26
2023-09-06T07:08:08.219Z,23.29
2023-09-06T07:08:40.727Z,23.31
2023-09-06T07:09:13.234Z,23.34
2023-09-06T07:09:45.787Z,23.36
2023-09-06T07:10:19.060Z,23.38
2023-09-06T07:10:51.637Z,23.40
2023-09-06T07:11:24.318Z,23.42
2023-09-06T07:11:56.875Z,23.43
2023-09-06T07:12:29.361Z,23.45
2023-09-06T07:13:01.995Z,23.46
2023-09-06T07:13:35.842Z,23.46
2023-09-06T07:14:08.472Z,23.47
2023-09-06T07:14:40.999Z,23.48
2023-09-06T07:15:14.128Z,23.49
2023-09-06T07:15:46.768Z,23.50
2023-09-06T07:16:21.119Z,23.51
2023-09-06T07:16:54.230Z,23.52
2023-09-06T07:17:26.840Z,23.53